• Join FlightAware (Why Join?)
  • Login
  • US Flag GB Flag 
18:44 EDT


 

Airport Tracker/Info


-or-


 

Live Flight TrackerFlight Track Log ✈ SWA1521 ✈ 03-May-2013 ✈ KSMF - KLAX

Flight Track Log - Related Links

Times and Time Zones

All times are in EDT time to prevent confusion due to time zone crossing. See the SWA1521 flight status page for this flight to view local times or setup timezone preferences in your user account.

Time Position Orientation Groundspeed Altitude Reporting Facility
EDT Latitude Longitude Course Direction KTS MPH feet Rate Location/Type
23:44 38.6481 -121.4875 144° Southeast 274 315 8,100  Level Oakland Center
23:45 38.6039 -121.3994 123° Southeast 297 342 11,500 3,480 Climbing Oakland Center
23:46 38.5539 -121.3011 123° Southeast 325 374 15,200 3,300 Climbing Oakland Center
23:47 38.4961 -121.1914 124° Southeast 359 413 18,300 3,180 Climbing Oakland Center
23:49 38.4286 -121.0603 123° Southeast 390 449 21,700 2,460 Climbing Oakland Center
23:50 38.3642 -120.9358 123° Southeast 416 479 23,300 1,260 Climbing Oakland Center
23:51 38.2986 -120.8103 124° Southeast 425 489 24,300 1,260 Climbing Oakland Center
23:52 38.2292 -120.6850 125° Southeast 432 497 25,900 1,440 Climbing Oakland Center
23:53 38.1350 -120.5853 140° Southeast 437 503 27,300 1,320 Climbing Oakland Center
23:54 38.0378 -120.4906 142° Southeast 437 503 28,700 780 Climbing Oakland Center
23:55 37.9436 -120.4000 143° Southeast 427 491 29,000 120 Climbing Oakland Center
23:56 37.8475 -120.3061 142° Southeast 436 502 29,000 240 Level Oakland Center
23:57 37.7481 -120.2081 142° Southeast 448 516 29,500 660 Climbing Oakland Center
23:58 37.6461 -120.1072 142° Southeast 459 528 30,400 1,140 Climbing Oakland Center
23:59 37.5369 -120.0119 145° Southeast 472 543 31,900 1,980 Climbing Oakland Center
00:00 37.4133 -119.8939 143° Southeast 464 534 34,400 1,920 Climbing Oakland Center
00:01 37.3233 -119.8061 142° Southeast 464 534 35,900 1,260 Climbing Oakland Center
00:02 37.2211 -119.7075 142° Southeast 462 532 37,000 540 Climbing Oakland Center
00:03 37.1161 -119.6111 144° Southeast 466 536 37,000  Level Oakland Center
00:04 36.9975 -119.5981 175° South 432 497 37,000  Level Oakland Center
00:05 36.8747 -119.5986 180° South 438 504 37,000  Level Oakland Center
00:06 36.7239 -119.6003 181° South 444 511 37,000  Level Oakland Center
00:07 36.6008 -119.6044 182° South 441 507 37,000  Level Oakland Center
00:08 36.4758 -119.6044 180° South 448 516 37,000  Level Oakland Center
00:09 36.3531 -119.6061 181° South 441 507 37,000  Level Oakland Center
00:10 36.2286 -119.6083 181° South 444 511 37,000  Level Oakland Center
00:11 36.1044 -119.6103 181° South 444 511 37,000  Level Oakland Center
00:12 35.9803 -119.6153 182° South 445 512 37,000  Level Oakland Center
00:13 35.8553 -119.6206 182° South 449 517 37,000  Level Oakland Center
00:14 35.7269 -119.6242 181° South 458 527 37,000  Level Oakland Center
00:15 35.5989 -119.6200 178° South 462 532 37,000  Level Oakland Center
00:16 35.4764 -119.5611 159° South 470 541 37,000  Level Oakland Center
00:17 35.3575 -119.4981 157° South 465 535 37,000 -300 Level Oakland Center
00:18 35.2364 -119.4344 157° South 469 540 36,500 -720 Descending Oakland Center
00:19 35.1161 -119.3725 157° South 469 540 35,600 -1,800 Descending Oakland Center
00:20 34.9964 -119.3092 157° South 468 539 32,900 -3,000 Descending Oakland Center
00:21 34.8781 -119.2472 157° South 463 533 29,500 -3,060 Descending Oakland Center
00:22 34.7564 -119.1836 157° South 469 540 26,700 -3,000 Descending Oakland Center
00:23 34.6089 -119.0956 154° Southeast 465 535 23,200 -2,940 Descending Los Angeles Center
00:24 34.5106 -119.0103 144° Southeast 434 499 20,500 -2,640 Descending Los Angeles Center
00:25 34.4158 -118.9319 146° Southeast 414 476 17,800 -2,640 Descending Los Angeles Center
00:26 34.3197 -118.8669 151° Southeast 392 451 15,200 -2,400 Descending Los Angeles Center
00:27 34.2178 -118.8308 164° South 382 440 13,000 -1,860 Descending Los Angeles Center
00:28 34.1253 -118.7961 163° South 352 405 11,500 -1,500 Descending Los Angeles Center
00:29 34.0750 -118.6953 121° Southeast 322 371 10,000 -1,260 Descending Los Angeles Center
00:30 34.0469 -118.5939 108° East 297 342 9,000 -1,320 Descending Los Angeles Center
00:31 34.0222 -118.5028 108° East 287 330 7,300 -1,800 Descending Los Angeles Center
00:32 34.0083 -118.4161 101° East 281 323 5,400 -1,380 Descending Los Angeles Center
00:33 34.0167 -118.3358 83° East 254 292 4,600 -960 Descending Los Angeles Center
00:34 34.0194 -118.2667 87° East 220 253 3,500 -1,200 Descending Los Angeles Center
00:35 33.9764 -118.2764 191° South 194 223 2,200 -1,140 Descending Los Angeles Center
00:36 33.9594 -118.3233 246° West 170 196 1,300 -780 Descending Los Angeles Center
00:37 33.9569 -118.3694 266° West 150 173 700 -540 Descending Los Angeles Center
00:38 33.9519 -118.4164 263° West 142 163 200 -540 Descending Los Angeles Center
00:40 33.9425 -118.4081 228° Southwest  Level Estimated